createdAt,value
2018-09-28T00:01:35.878Z,20.57
2018-09-28T00:04:04.360Z,22.37
2018-09-28T00:06:32.800Z,22.13
2018-09-28T00:09:01.316Z,21.13
2018-09-28T00:11:29.809Z,21.70
2018-09-28T00:13:58.295Z,23.33
2018-09-28T00:16:26.784Z,21.03
2018-09-28T00:18:55.270Z,19.37
2018-09-28T00:21:23.704Z,21.13
2018-09-28T00:23:52.163Z,21.20
2018-09-28T00:26:20.619Z,22.27
2018-09-28T00:28:49.109Z,22.33
2018-09-28T00:31:17.585Z,22.70
2018-09-28T00:33:46.061Z,23.33
2018-09-28T00:36:14.609Z,23.27
2018-09-28T00:38:43.100Z,22.33
2018-09-28T00:41:11.608Z,23.03
2018-09-28T00:43:40.139Z,23.17
2018-09-28T00:46:08.906Z,23.93
2018-09-28T00:48:37.450Z,23.60
2018-09-28T00:51:06.011Z,23.57
2018-09-28T00:53:34.460Z,24.20
2018-09-28T00:56:03.417Z,24.33
2018-09-28T00:58:31.914Z,24.93
2018-09-28T01:01:00.480Z,26.50
2018-09-28T01:03:28.948Z,24.83
2018-09-28T01:05:57.437Z,22.63
2018-09-28T01:08:25.928Z,20.77
2018-09-28T01:10:54.391Z,19.80
2018-09-28T01:13:22.846Z,20.03
2018-09-28T01:15:51.312Z,19.80
2018-09-28T01:18:19.772Z,19.47
2018-09-28T01:20:48.277Z,18.20
2018-09-28T01:23:16.738Z,19.33
2018-09-28T01:25:45.256Z,19.17
2018-09-28T01:28:13.751Z,21.30
2018-09-28T01:30:42.223Z,21.97
2018-09-28T01:33:10.693Z,21.07
2018-09-28T01:35:39.200Z,21.97
2018-09-28T01:38:07.694Z,19.30
2018-09-28T01:40:36.220Z,21.90
2018-09-28T01:43:04.712Z,23.37
2018-09-28T01:45:33.205Z,24.83
2018-09-28T01:48:01.680Z,24.80
2018-09-28T01:50:30.157Z,25.17
2018-09-28T01:52:58.620Z,25.27
2018-09-28T01:55:27.093Z,24.97
2018-09-28T01:57:55.564Z,25.37
2018-09-28T02:00:24.076Z,23.60
2018-09-28T02:02:52.567Z,25.03
2018-09-28T02:05:21.048Z,27.60
2018-09-28T02:07:49.758Z,26.37
2018-09-28T02:10:18.309Z,25.57
2018-09-28T02:12:46.791Z,26.13
2018-09-28T02:15:15.248Z,26.30
2018-09-28T02:17:43.749Z,26.13
2018-09-28T02:20:12.236Z,27.37
2018-09-28T02:22:40.757Z,28.80
2018-09-28T02:25:09.296Z,28.63
2018-09-28T02:27:37.809Z,28.03
2018-09-28T02:30:06.817Z,26.63
2018-09-28T02:32:36.001Z,27.97
2018-09-28T02:35:05.671Z,28.27
2018-09-28T02:37:34.419Z,29.67
2018-09-28T02:40:03.521Z,29.73
2018-09-28T02:45:11.139Z,35.10
2018-09-28T02:47:39.976Z,35.70
2018-09-28T02:50:08.702Z,35.73
2018-09-28T02:52:37.403Z,36.27
2018-09-28T02:55:05.975Z,37.43
2018-09-28T02:57:34.613Z,36.73
2018-09-28T03:00:03.213Z,34.33
2018-09-28T03:02:31.763Z,37.10
2018-09-28T03:05:00.366Z,34.00
2018-09-28T03:07:28.898Z,34.10
2018-09-28T03:09:57.545Z,34.07
2018-09-28T03:12:26.098Z,33.67
2018-09-28T03:14:54.654Z,33.27
2018-09-28T03:17:23.260Z,32.77
2018-09-28T03:19:51.901Z,33.53
2018-09-28T03:22:20.449Z,34.73
2018-09-28T03:24:49.882Z,33.63
2018-09-28T03:27:18.332Z,33.13
2018-09-28T03:29:46.833Z,32.77
2018-09-28T03:32:15.931Z,33.00
2018-09-28T03:34:44.409Z,33.40
2018-09-28T03:37:12.893Z,33.20
2018-09-28T03:39:41.424Z,32.33
2018-09-28T03:42:09.909Z,30.73
2018-09-28T03:44:38.439Z,30.93
2018-09-28T03:47:06.968Z,30.00
2018-09-28T03:49:35.474Z,30.90
2018-09-28T03:52:03.983Z,31.93
2018-09-28T03:54:32.498Z,28.87
2018-09-28T03:57:00.969Z,29.43
2018-09-28T03:59:29.460Z,29.17
2018-09-28T04:01:57.976Z,28.40
2018-09-28T04:04:26.441Z,28.90
2018-09-28T04:06:54.902Z,28.87
2018-09-28T04:09:23.384Z,28.17
2018-09-28T04:11:51.882Z,29.73
2018-09-28T04:14:20.381Z,26.90
2018-09-28T04:16:48.855Z,25.33
2018-09-28T04:19:17.293Z,26.53
2018-09-28T04:21:56.856Z,26.47
2018-09-28T04:24:25.356Z,26.20
2018-09-28T04:26:54.112Z,25.77
2018-09-28T04:29:22.708Z,24.83
2018-09-28T04:31:51.141Z,23.73
2018-09-28T04:34:20.640Z,23.83
2018-09-28T04:36:49.261Z,22.20
2018-09-28T04:39:17.753Z,22.90
2018-09-28T04:41:46.240Z,22.33
2018-09-28T04:44:14.807Z,20.43
2018-09-28T04:46:43.268Z,21.20
2018-09-28T04:49:11.744Z,19.03
2018-09-28T04:51:40.223Z,17.80
2018-09-28T04:54:08.745Z,16.83
2018-09-28T04:56:37.240Z,13.70
2018-09-28T04:59:05.888Z,12.87
2018-09-28T05:01:34.343Z,12.30
2018-09-28T05:04:02.824Z,10.43
2018-09-28T05:06:31.316Z,11.53
2018-09-28T05:08:59.888Z,11.77
2018-09-28T05:11:28.338Z,10.27
2018-09-28T05:13:56.790Z,9.17
2018-09-28T05:16:25.259Z,8.40
2018-09-28T05:18:53.753Z,7.13
2018-09-28T05:21:22.298Z,6.87
2018-09-28T05:23:50.766Z,5.93
2018-09-28T05:26:19.236Z,4.60
2018-09-28T05:28:47.760Z,4.47
2018-09-28T05:31:16.271Z,3.87
2018-09-28T05:33:44.707Z,4.13
2018-09-28T05:36:13.165Z,2.73
2018-09-28T05:38:41.646Z,2.27
2018-09-28T05:41:10.193Z,2.77
2018-09-28T05:43:38.697Z,2.67
2018-09-28T05:46:07.217Z,2.60
2018-09-28T05:48:35.724Z,2.47
2018-09-28T05:51:04.249Z,2.30
2018-09-28T05:53:32.753Z,2.40
2018-09-28T05:56:01.271Z,2.37
2018-09-28T05:58:35.269Z,2.57
2018-09-28T06:01:09.174Z,2.20
2018-09-28T06:03:41.890Z,2.30
2018-09-28T06:06:10.368Z,2.53
2018-09-28T06:08:38.929Z,2.00
2018-09-28T06:11:07.452Z,2.37
2018-09-28T06:13:35.979Z,2.33
2018-09-28T06:16:04.468Z,2.20
2018-09-28T06:18:33.081Z,2.10
2018-09-28T06:21:01.579Z,2.17
2018-09-28T06:23:30.090Z,1.67
2018-09-28T06:25:58.741Z,2.03
2018-09-28T06:28:27.220Z,2.57
2018-09-28T06:30:55.787Z,2.63
2018-09-28T06:33:24.317Z,2.50
2018-09-28T06:35:52.891Z,2.50
2018-09-28T06:38:21.411Z,2.27
2018-09-28T06:40:50.496Z,2.60
2018-09-28T06:43:19.857Z,2.57
2018-09-28T06:45:48.374Z,2.50
2018-09-28T06:48:16.915Z,3.40
2018-09-28T06:50:45.488Z,2.60
2018-09-28T06:53:14.004Z,2.60
2018-09-28T06:55:42.514Z,2.37
2018-09-28T06:58:11.066Z,1.93
2018-09-28T07:00:39.587Z,2.27
2018-09-28T07:03:08.135Z,1.93
2018-09-28T07:05:36.670Z,2.43
2018-09-28T07:08:05.261Z,2.43
2018-09-28T07:10:33.787Z,2.23
2018-09-28T07:13:02.294Z,2.90
2018-09-28T07:15:30.815Z,3.07
2018-09-28T07:17:59.425Z,2.93
2018-09-28T07:20:27.967Z,2.80
2018-09-28T07:22:56.484Z,2.83
2018-09-28T07:25:24.917Z,2.77
2018-09-28T07:27:54.330Z,3.40
2018-09-28T07:30:22.932Z,2.80
2018-09-28T07:32:51.346Z,4.17
2018-09-28T07:35:19.860Z,2.80
2018-09-28T07:37:48.359Z,3.47
2018-09-28T07:40:16.882Z,2.57
2018-09-28T07:42:45.405Z,2.60
2018-09-28T07:45:13.897Z,3.47
2018-09-28T07:47:42.482Z,2.93
2018-09-28T07:50:11.017Z,2.87
2018-09-28T07:52:39.492Z,2.60
2018-09-28T07:55:08.015Z,3.30
2018-09-28T07:57:36.501Z,3.53
2018-09-28T08:00:05.153Z,3.30
2018-09-28T08:02:33.641Z,2.93
2018-09-28T08:05:02.171Z,3.30
2018-09-28T08:07:30.678Z,2.70
2018-09-28T08:09:59.185Z,3.13
2018-09-28T08:12:27.701Z,3.03
2018-09-28T08:14:56.456Z,3.17
2018-09-28T08:17:24.916Z,2.47
2018-09-28T08:19:53.431Z,2.83
2018-09-28T08:22:21.916Z,2.63
2018-09-28T08:24:50.507Z,3.17
2018-09-28T08:27:19.032Z,2.80
2018-09-28T08:29:47.582Z,2.57
2018-09-28T08:32:16.105Z,3.20
2018-09-28T08:34:44.644Z,2.83
2018-09-28T08:37:13.158Z,2.90
2018-09-28T08:39:41.685Z,3.90
2018-09-28T08:42:10.260Z,2.40
2018-09-28T08:44:38.802Z,2.50
2018-09-28T08:47:07.740Z,2.70
2018-09-28T08:49:36.399Z,2.90
2018-09-28T08:52:04.912Z,2.90
2018-09-28T08:54:33.412Z,3.00
2018-09-28T08:57:01.912Z,3.13
2018-09-28T08:59:30.434Z,2.80
2018-09-28T09:01:58.967Z,3.07
2018-09-28T09:04:27.505Z,2.90
2018-09-28T09:06:55.949Z,2.87
2018-09-28T09:09:24.408Z,2.97
2018-09-28T09:11:52.894Z,2.87
2018-09-28T09:14:21.437Z,3.93
2018-09-28T09:16:49.894Z,2.60
2018-09-28T09:19:18.432Z,2.13
2018-09-28T09:21:46.949Z,2.83
2018-09-28T09:24:15.498Z,2.30
2018-09-28T09:26:43.996Z,2.70
2018-09-28T09:29:12.482Z,3.27
2018-09-28T09:31:40.954Z,2.43
2018-09-28T09:34:09.457Z,2.73
2018-09-28T09:36:37.930Z,2.27
2018-09-28T09:39:08.412Z,2.67
2018-09-28T09:41:36.892Z,2.53
2018-09-28T09:44:05.369Z,2.03
2018-09-28T09:46:33.780Z,3.03
2018-09-28T09:49:02.227Z,2.47
2018-09-28T09:51:30.763Z,2.27
2018-09-28T09:53:59.260Z,2.87
2018-09-28T09:56:27.665Z,2.37
2018-09-28T09:58:56.156Z,2.83
2018-09-28T10:01:33.104Z,2.37
2018-09-28T10:04:06.741Z,2.23
2018-09-28T10:06:35.181Z,2.40
2018-09-28T10:09:04.213Z,2.10
2018-09-28T10:11:32.702Z,2.50
2018-09-28T10:14:01.193Z,1.87
2018-09-28T10:16:29.696Z,2.27
2018-09-28T10:18:58.181Z,3.10
2018-09-28T10:21:26.653Z,2.60
2018-09-28T10:23:55.165Z,2.30
2018-09-28T10:26:23.630Z,2.10
2018-09-28T10:28:52.129Z,2.27
2018-09-28T10:31:20.588Z,3.00
2018-09-28T10:33:49.033Z,2.80
2018-09-28T10:36:17.447Z,2.40
2018-09-28T10:38:45.906Z,2.03
2018-09-28T10:41:14.419Z,2.10
2018-09-28T10:43:42.980Z,2.20
2018-09-28T10:46:11.436Z,1.63
2018-09-28T10:48:39.899Z,2.00
2018-09-28T10:51:08.497Z,2.17
2018-09-28T10:53:37.022Z,1.87
2018-09-28T10:56:05.591Z,2.53
2018-09-28T10:58:34.177Z,2.10
2018-09-28T11:01:02.708Z,2.43
2018-09-28T11:03:31.277Z,2.47
2018-09-28T11:05:59.745Z,2.57
2018-09-28T11:08:28.263Z,2.33
2018-09-28T11:10:56.922Z,2.40
2018-09-28T11:13:25.441Z,2.53
2018-09-28T11:15:54.008Z,2.37
2018-09-28T11:18:22.495Z,2.07
2018-09-28T11:20:50.977Z,2.70
2018-09-28T11:23:19.453Z,1.80
2018-09-28T11:25:47.933Z,2.47
2018-09-28T11:28:16.373Z,2.03
2018-09-28T11:30:44.832Z,1.80
2018-09-28T11:33:13.356Z,1.77
2018-09-28T11:35:41.794Z,2.03
2018-09-28T11:38:10.310Z,2.63
2018-09-28T11:40:38.829Z,2.50
2018-09-28T11:43:07.308Z,2.13
2018-09-28T11:45:35.851Z,1.87
2018-09-28T11:48:04.324Z,1.83
2018-09-28T11:50:32.900Z,1.63
2018-09-28T11:53:01.321Z,2.70
2018-09-28T11:55:29.867Z,1.73
2018-09-28T11:57:58.356Z,1.87
2018-09-28T12:00:26.910Z,1.83
2018-09-28T12:02:55.471Z,1.70
2018-09-28T12:05:24.121Z,1.80
2018-09-28T12:07:52.705Z,2.00
2018-09-28T12:10:21.221Z,2.10
2018-09-28T12:12:49.820Z,2.30
2018-09-28T12:15:18.495Z,2.10
2018-09-28T12:17:46.956Z,2.20
2018-09-28T12:20:15.392Z,1.63
2018-09-28T12:22:43.873Z,2.13
2018-09-28T12:25:12.383Z,2.47
2018-09-28T12:27:40.865Z,1.37
2018-09-28T12:30:09.333Z,1.60
2018-09-28T12:32:37.943Z,1.80
2018-09-28T12:35:08.252Z,1.50
2018-09-28T12:37:36.962Z,1.70
2018-09-28T12:40:05.637Z,2.13
2018-09-28T12:42:34.285Z,2.07
2018-09-28T12:45:02.909Z,2.13
2018-09-28T12:47:31.795Z,1.57
2018-09-28T12:50:00.304Z,2.03
2018-09-28T12:52:28.877Z,1.20
2018-09-28T12:54:57.408Z,1.20
2018-09-28T12:57:25.952Z,1.40
2018-09-28T12:59:54.464Z,1.63
2018-09-28T13:02:23.017Z,1.10
2018-09-28T13:04:51.477Z,1.13
2018-09-28T13:07:19.968Z,1.43
2018-09-28T13:09:48.425Z,1.60
2018-09-28T13:12:16.928Z,1.40
2018-09-28T13:14:45.437Z,1.50
2018-09-28T13:17:13.896Z,1.50
2018-09-28T13:19:50.190Z,1.27
2018-09-28T13:22:18.662Z,1.33
2018-09-28T13:24:47.270Z,1.70
2018-09-28T13:27:15.731Z,1.50
2018-09-28T13:29:44.258Z,1.50
2018-09-28T13:32:12.764Z,1.57
2018-09-28T13:34:41.216Z,1.50
2018-09-28T13:37:09.887Z,1.53
2018-09-28T13:39:38.357Z,1.23
2018-09-28T13:42:07.302Z,1.60
2018-09-28T13:44:35.804Z,1.57
2018-09-28T13:47:04.244Z,1.40
2018-09-28T13:49:32.806Z,1.33
2018-09-28T13:52:01.365Z,1.90
2018-09-28T13:54:29.862Z,1.80
2018-09-28T13:56:58.362Z,1.80
2018-09-28T13:59:26.873Z,1.80
2018-09-28T14:01:55.474Z,1.70
2018-09-28T14:04:24.081Z,1.60
2018-09-28T14:06:53.466Z,1.23
2018-09-28T14:09:22.010Z,1.40
2018-09-28T14:11:50.516Z,1.47
2018-09-28T14:14:19.041Z,1.60
2018-09-28T14:16:47.623Z,1.87
2018-09-28T14:19:16.091Z,1.60
2018-09-28T14:21:44.609Z,1.60
2018-09-28T14:24:13.147Z,1.63
2018-09-28T14:26:43.013Z,1.70
2018-09-28T14:29:11.577Z,1.70
2018-09-28T14:31:40.077Z,2.10
2018-09-28T14:34:08.612Z,2.13
2018-09-28T14:36:37.155Z,1.60
2018-09-28T14:39:07.607Z,1.67
2018-09-28T14:41:36.090Z,1.80
2018-09-28T14:44:04.544Z,1.87
2018-09-28T14:46:33.054Z,2.23
2018-09-28T14:49:03.175Z,1.47
2018-09-28T14:51:31.977Z,1.73
2018-09-28T14:54:00.658Z,1.67
2018-09-28T14:56:29.213Z,1.63
2018-09-28T14:58:57.664Z,1.57
2018-09-28T15:01:26.178Z,1.20
2018-09-28T15:03:54.654Z,1.60
2018-09-28T15:06:23.182Z,1.60
2018-09-28T15:08:51.632Z,1.53
2018-09-28T15:11:20.469Z,1.37
2018-09-28T15:13:48.962Z,1.23
2018-09-28T15:16:17.475Z,1.40
2018-09-28T15:18:45.943Z,1.80
2018-09-28T15:21:14.489Z,1.90
2018-09-28T15:23:42.960Z,1.43
2018-09-28T15:26:11.448Z,1.10
2018-09-28T15:28:40.046Z,1.53
2018-09-28T15:31:08.624Z,1.83
2018-09-28T15:33:37.119Z,1.47
2018-09-28T15:36:05.593Z,1.57
2018-09-28T15:38:34.119Z,1.50
2018-09-28T15:41:02.640Z,1.90
2018-09-28T15:43:31.115Z,1.90
2018-09-28T15:46:00.872Z,1.53
2018-09-28T15:48:29.352Z,1.23
2018-09-28T15:50:57.798Z,1.10
2018-09-28T15:53:26.259Z,1.83
2018-09-28T15:55:55.973Z,1.90
2018-09-28T15:58:24.469Z,2.00
2018-09-28T16:00:52.990Z,1.83
2018-09-28T16:03:21.437Z,1.57
2018-09-28T16:05:49.928Z,1.93
2018-09-28T16:08:18.416Z,1.90
2018-09-28T16:10:46.944Z,1.50
2018-09-28T16:13:15.590Z,1.80
2018-09-28T16:15:44.073Z,1.97
2018-09-28T16:18:12.585Z,2.17
2018-09-28T16:20:41.113Z,2.10
2018-09-28T16:23:09.601Z,1.70
2018-09-28T16:25:38.153Z,1.87
2018-09-28T16:28:06.641Z,2.03
2018-09-28T16:30:35.236Z,2.03
2018-09-28T16:33:03.732Z,1.53
2018-09-28T16:35:32.261Z,1.60
2018-09-28T16:38:00.817Z,1.57
2018-09-28T16:40:29.362Z,1.87
2018-09-28T16:42:57.855Z,1.87
2018-09-28T16:45:26.352Z,2.30
2018-09-28T16:47:55.474Z,2.50
2018-09-28T16:50:24.006Z,1.33
2018-09-28T16:52:52.529Z,1.73
2018-09-28T16:55:21.022Z,2.00
2018-09-28T16:57:49.534Z,1.60
2018-09-28T17:00:18.024Z,1.63
2018-09-28T17:02:46.488Z,1.57
2018-09-28T17:05:14.985Z,1.77
2018-09-28T17:07:43.456Z,1.90
2018-09-28T17:10:11.941Z,1.50
2018-09-28T17:12:40.420Z,2.17
2018-09-28T17:15:09.005Z,2.80
2018-09-28T17:17:37.532Z,2.20
2018-09-28T17:20:06.042Z,1.40
2018-09-28T17:22:34.534Z,1.50
2018-09-28T17:25:03.362Z,2.00
2018-09-28T17:27:31.818Z,1.03
2018-09-28T17:30:00.297Z,1.10
2018-09-28T17:32:28.780Z,1.50
2018-09-28T17:34:57.317Z,1.57
2018-09-28T17:37:25.712Z,1.67
2018-09-28T17:39:54.242Z,1.70
2018-09-28T17:42:22.766Z,1.87
2018-09-28T17:44:51.242Z,1.83
2018-09-28T17:47:19.703Z,1.67
2018-09-28T17:49:48.183Z,1.50
2018-09-28T17:52:16.680Z,1.77
2018-09-28T17:54:45.176Z,2.07
2018-09-28T17:57:13.700Z,1.97
2018-09-28T17:59:42.585Z,2.03
2018-09-28T18:02:11.405Z,2.20
2018-09-28T18:04:39.897Z,1.73
2018-09-28T18:07:08.449Z,1.77
2018-09-28T18:09:36.968Z,1.40
2018-09-28T18:12:05.453Z,1.70
2018-09-28T18:14:33.965Z,1.60
2018-09-28T18:17:02.445Z,1.43
2018-09-28T18:19:30.971Z,1.83
2018-09-28T18:21:59.486Z,1.90
2018-09-28T18:24:27.994Z,2.70
2018-09-28T18:26:56.574Z,2.40
2018-09-28T18:29:25.086Z,2.30
2018-09-28T18:31:53.666Z,2.37
2018-09-28T18:34:22.163Z,2.20
2018-09-28T18:36:50.729Z,2.07
2018-09-28T18:39:19.293Z,1.87
2018-09-28T18:41:47.831Z,2.07
2018-09-28T18:44:16.359Z,2.03
2018-09-28T18:46:44.912Z,2.33
2018-09-28T18:49:13.448Z,2.00
2018-09-28T18:51:42.093Z,2.40
2018-09-28T18:54:10.602Z,1.97
2018-09-28T18:56:39.080Z,1.60
2018-09-28T18:59:07.666Z,1.90
2018-09-28T19:01:36.258Z,1.67
2018-09-28T19:04:04.843Z,1.67
2018-09-28T19:06:33.333Z,2.43
2018-09-28T19:09:01.891Z,1.70
2018-09-28T19:11:30.551Z,1.97
2018-09-28T19:13:59.138Z,2.00
2018-09-28T19:16:27.670Z,1.90
2018-09-28T19:18:56.327Z,2.17
2018-09-28T19:21:24.878Z,2.33
2018-09-28T19:23:53.306Z,2.33
2018-09-28T19:26:21.797Z,2.07
2018-09-28T19:28:50.212Z,2.10
2018-09-28T19:31:18.721Z,1.87
2018-09-28T19:33:47.209Z,1.93
2018-09-28T19:36:15.821Z,1.97
2018-09-28T19:38:44.371Z,2.53
2018-09-28T19:41:12.805Z,2.20
2018-09-28T19:43:41.233Z,2.33
2018-09-28T19:46:09.692Z,2.10
2018-09-28T19:48:38.156Z,2.20
2018-09-28T19:51:06.775Z,1.90
2018-09-28T19:53:35.470Z,2.13
2018-09-28T19:56:04.093Z,1.87
2018-09-28T19:58:32.587Z,2.33
2018-09-28T20:01:01.102Z,2.63
2018-09-28T20:03:29.625Z,2.33
2018-09-28T20:05:58.155Z,2.97
2018-09-28T20:08:26.638Z,2.77
2018-09-28T20:10:55.253Z,3.07
2018-09-28T20:13:23.808Z,2.40
2018-09-28T20:15:52.325Z,1.97
2018-09-28T20:18:20.808Z,2.47
2018-09-28T20:20:49.469Z,2.47
2018-09-28T20:23:18.051Z,2.13
2018-09-28T20:25:46.707Z,2.33
2018-09-28T20:28:15.180Z,2.33
2018-09-28T20:30:43.684Z,2.23
2018-09-28T20:33:12.251Z,1.93
2018-09-28T20:35:40.792Z,2.30
2018-09-28T20:38:09.289Z,2.50
2018-09-28T20:40:37.906Z,1.83
2018-09-28T20:43:06.575Z,2.07
2018-09-28T20:45:35.091Z,2.20
2018-09-28T20:48:03.649Z,2.50
2018-09-28T20:50:32.186Z,2.70
2018-09-28T20:53:00.692Z,2.40
2018-09-28T20:55:29.279Z,3.30
2018-09-28T20:57:57.700Z,2.93
2018-09-28T21:00:26.193Z,2.93
2018-09-28T21:02:54.675Z,2.07
2018-09-28T21:05:23.167Z,2.50
2018-09-28T21:07:51.772Z,3.07
2018-09-28T21:10:20.301Z,2.70
2018-09-28T21:12:48.824Z,3.50
2018-09-28T21:15:17.320Z,3.40
2018-09-28T21:17:45.819Z,2.70
2018-09-28T21:20:14.357Z,2.70
2018-09-28T21:22:42.825Z,2.70
2018-09-28T21:25:11.479Z,3.20
2018-09-28T21:27:40.077Z,3.20
2018-09-28T21:30:08.633Z,2.97
2018-09-28T21:32:37.138Z,3.50
2018-09-28T21:35:05.673Z,2.97
2018-09-28T21:37:34.307Z,2.90
2018-09-28T21:40:02.772Z,3.40
2018-09-28T21:42:31.327Z,3.43
2018-09-28T21:44:59.794Z,2.90
2018-09-28T21:47:28.315Z,2.80
2018-09-28T21:49:56.809Z,3.43
2018-09-28T21:52:25.324Z,3.03
2018-09-28T21:54:53.822Z,3.47
2018-09-28T21:57:22.296Z,3.70
2018-09-28T21:59:50.838Z,2.77
2018-09-28T22:02:19.328Z,3.07
2018-09-28T22:04:47.878Z,2.73
2018-09-28T22:07:16.342Z,3.00
2018-09-28T22:09:44.855Z,3.50
2018-09-28T22:12:13.361Z,3.37
2018-09-28T22:14:41.846Z,3.13
2018-09-28T22:17:10.399Z,3.70
2018-09-28T22:19:38.898Z,3.20
2018-09-28T22:22:07.450Z,3.27
2018-09-28T22:24:36.051Z,3.13
2018-09-28T22:27:04.578Z,3.37
2018-09-28T22:29:33.037Z,3.10
2018-09-28T22:32:01.561Z,3.13
2018-09-28T22:34:30.080Z,3.07
2018-09-28T22:36:58.541Z,2.67
2018-09-28T22:39:27.014Z,3.33
2018-09-28T22:41:55.507Z,3.53
2018-09-28T22:44:24.307Z,3.30
2018-09-28T22:46:52.801Z,3.07
2018-09-28T22:49:21.281Z,2.87
2018-09-28T22:51:49.829Z,3.37
2018-09-28T22:54:18.322Z,3.00
2018-09-28T22:56:46.807Z,3.10
2018-09-28T22:59:15.662Z,2.93
2018-09-28T23:01:44.175Z,3.23
2018-09-28T23:04:12.675Z,3.10
2018-09-28T23:06:41.132Z,3.23
2018-09-28T23:09:09.881Z,2.77
2018-09-28T23:11:38.698Z,4.23
2018-09-28T23:14:07.255Z,3.03
2018-09-28T23:16:35.736Z,3.33
2018-09-28T23:19:04.210Z,3.23
2018-09-28T23:21:32.779Z,3.60
2018-09-28T23:24:01.192Z,3.03
2018-09-28T23:26:29.705Z,2.33
2018-09-28T23:28:58.204Z,2.77
2018-09-28T23:31:26.725Z,3.57
2018-09-28T23:33:55.182Z,2.70
2018-09-28T23:36:23.968Z,2.87
2018-09-28T23:38:52.525Z,3.00
2018-09-28T23:41:21.032Z,2.70
2018-09-28T23:43:49.468Z,2.70
2018-09-28T23:46:17.965Z,3.10
2018-09-28T23:48:46.449Z,2.53
2018-09-28T23:51:15.057Z,2.47
2018-09-28T23:53:43.539Z,2.97
2018-09-28T23:56:12.013Z,2.50
2018-09-28T23:58:40.516Z,2.97
